sensor_id;sensor_type;location;lat;lon;timestamp;P1;durP1;ratioP1;P2;durP2;ratioP2
11791;SDS011;5953;52.372;9.918;2023-07-31T00:00:04;4.13;;;1.77;;
11791;SDS011;5953;52.372;9.918;2023-07-31T00:02:35;3.80;;;1.90;;
11791;SDS011;5953;52.372;9.918;2023-07-31T00:05:03;3.83;;;1.50;;
11791;SDS011;5953;52.372;9.918;2023-07-31T00:07:33;2.53;;;1.60;;
11791;SDS011;5953;52.372;9.918;2023-07-31T00:10:01;3.87;;;1.70;;
11791;SDS011;5953;52.372;9.918;2023-07-31T00:12:29;3.07;;;1.30;;
11791;SDS011;5953;52.372;9.918;2023-07-31T00:14:57;4.40;;;1.70;;
11791;SDS011;5953;52.372;9.918;2023-07-31T00:17:25;4.10;;;1.70;;
11791;SDS011;5953;52.372;9.918;2023-07-31T00:19:53;2.87;;;1.53;;
11791;SDS011;5953;52.372;9.918;2023-07-31T00:22:21;3.23;;;1.70;;
11791;SDS011;5953;52.372;9.918;2023-07-31T00:24:50;4.67;;;1.83;;
11791;SDS011;5953;52.372;9.918;2023-07-31T00:27:18;3.93;;;1.63;;
11791;SDS011;5953;52.372;9.918;2023-07-31T00:29:46;3.87;;;1.70;;
11791;SDS011;5953;52.372;9.918;2023-07-31T00:32:14;3.40;;;1.90;;
11791;SDS011;5953;52.372;9.918;2023-07-31T00:34:42;3.40;;;1.63;;
11791;SDS011;5953;52.372;9.918;2023-07-31T00:37:10;3.23;;;1.50;;
11791;SDS011;5953;52.372;9.918;2023-07-31T00:39:38;4.90;;;2.03;;
11791;SDS011;5953;52.372;9.918;2023-07-31T00:42:08;3.43;;;1.80;;
11791;SDS011;5953;52.372;9.918;2023-07-31T00:44:36;2.30;;;1.23;;
11791;SDS011;5953;52.372;9.918;2023-07-31T00:47:04;2.70;;;1.50;;
11791;SDS011;5953;52.372;9.918;2023-07-31T00:49:32;2.60;;;1.70;;
11791;SDS011;5953;52.372;9.918;2023-07-31T00:52:00;3.00;;;1.87;;
11791;SDS011;5953;52.372;9.918;2023-07-31T00:54:29;4.37;;;1.50;;
11791;SDS011;5953;52.372;9.918;2023-07-31T00:56:57;2.97;;;1.83;;
11791;SDS011;5953;52.372;9.918;2023-07-31T00:59:26;2.07;;;1.50;;
11791;SDS011;5953;52.372;9.918;2023-07-31T01:01:54;2.97;;;1.80;;
11791;SDS011;5953;52.372;9.918;2023-07-31T01:04:22;5.70;;;1.87;;
11791;SDS011;5953;52.372;9.918;2023-07-31T01:06:52;3.33;;;2.00;;
11791;SDS011;5953;52.372;9.918;2023-07-31T01:09:29;3.83;;;1.70;;
11791;SDS011;5953;52.372;9.918;2023-07-31T01:12:03;1.60;;;1.50;;
11791;SDS011;5953;52.372;9.918;2023-07-31T01:14:35;3.43;;;1.70;;
11791;SDS011;5953;52.372;9.918;2023-07-31T01:17:03;2.50;;;1.43;;
11791;SDS011;5953;52.372;9.918;2023-07-31T01:19:32;2.40;;;1.60;;
11791;SDS011;5953;52.372;9.918;2023-07-31T01:22:16;3.97;;;1.57;;
11791;SDS011;5953;52.372;9.918;2023-07-31T01:24:59;2.17;;;1.73;;
11791;SDS011;5953;52.372;9.918;2023-07-31T01:27:41;3.30;;;1.53;;
11791;SDS011;5953;52.372;9.918;2023-07-31T01:30:16;3.63;;;1.80;;
11791;SDS011;5953;52.372;9.918;2023-07-31T01:32:49;2.50;;;1.30;;
11791;SDS011;5953;52.372;9.918;2023-07-31T01:35:18;2.13;;;1.37;;
11791;SDS011;5953;52.372;9.918;2023-07-31T01:37:47;2.40;;;1.50;;
11791;SDS011;5953;52.372;9.918;2023-07-31T01:40:16;2.20;;;1.60;;
11791;SDS011;5953;52.372;9.918;2023-07-31T01:42:45;2.10;;;1.30;;
11791;SDS011;5953;52.372;9.918;2023-07-31T01:45:13;4.30;;;1.57;;
11791;SDS011;5953;52.372;9.918;2023-07-31T01:47:41;2.10;;;1.37;;
11791;SDS011;5953;52.372;9.918;2023-07-31T01:50:09;1.97;;;1.20;;
11791;SDS011;5953;52.372;9.918;2023-07-31T01:52:38;7.00;;;1.80;;
11791;SDS011;5953;52.372;9.918;2023-07-31T01:55:06;2.13;;;1.20;;
11791;SDS011;5953;52.372;9.918;2023-07-31T02:00:06;2.77;;;1.37;;
11791;SDS011;5953;52.372;9.918;2023-07-31T02:02:35;2.07;;;1.10;;
11791;SDS011;5953;52.372;9.918;2023-07-31T02:05:03;4.83;;;1.33;;
11791;SDS011;5953;52.372;9.918;2023-07-31T02:07:31;2.27;;;1.20;;
11791;SDS011;5953;52.372;9.918;2023-07-31T02:09:59;2.77;;;1.30;;
11791;SDS011;5953;52.372;9.918;2023-07-31T02:12:27;2.87;;;1.10;;
11791;SDS011;5953;52.372;9.918;2023-07-31T02:14:57;1.53;;;1.00;;
11791;SDS011;5953;52.372;9.918;2023-07-31T02:17:27;1.10;;;1.00;;
11791;SDS011;5953;52.372;9.918;2023-07-31T02:19:55;2.17;;;1.13;;
11791;SDS011;5953;52.372;9.918;2023-07-31T02:22:23;1.77;;;1.00;;
11791;SDS011;5953;52.372;9.918;2023-07-31T02:24:51;2.57;;;1.17;;
11791;SDS011;5953;52.372;9.918;2023-07-31T02:27:19;0.80;;;0.80;;
11791;SDS011;5953;52.372;9.918;2023-07-31T02:29:50;1.57;;;0.80;;
11791;SDS011;5953;52.372;9.918;2023-07-31T02:32:18;1.20;;;0.80;;
11791;SDS011;5953;52.372;9.918;2023-07-31T02:34:47;1.70;;;0.83;;
11791;SDS011;5953;52.372;9.918;2023-07-31T02:37:15;1.40;;;1.00;;
11791;SDS011;5953;52.372;9.918;2023-07-31T02:39:44;3.20;;;1.00;;
11791;SDS011;5953;52.372;9.918;2023-07-31T02:42:12;1.30;;;0.83;;
11791;SDS011;5953;52.372;9.918;2023-07-31T02:44:40;0.60;;;0.60;;
11791;SDS011;5953;52.372;9.918;2023-07-31T02:47:08;6.27;;;0.73;;
11791;SDS011;5953;52.372;9.918;2023-07-31T02:49:36;1.90;;;0.87;;
11791;SDS011;5953;52.372;9.918;2023-07-31T02:52:06;1.53;;;0.70;;
11791;SDS011;5953;52.372;9.918;2023-07-31T02:54:34;3.23;;;0.73;;
11791;SDS011;5953;52.372;9.918;2023-07-31T02:57:02;1.00;;;0.77;;
11791;SDS011;5953;52.372;9.918;2023-07-31T02:59:31;1.63;;;0.70;;
11791;SDS011;5953;52.372;9.918;2023-07-31T03:01:59;0.83;;;0.60;;
11791;SDS011;5953;52.372;9.918;2023-07-31T03:04:27;0.90;;;0.60;;
11791;SDS011;5953;52.372;9.918;2023-07-31T03:06:55;2.37;;;0.87;;
11791;SDS011;5953;52.372;9.918;2023-07-31T03:09:24;0.80;;;0.70;;
11791;SDS011;5953;52.372;9.918;2023-07-31T03:11:52;2.40;;;1.00;;
11791;SDS011;5953;52.372;9.918;2023-07-31T03:14:20;2.27;;;0.90;;
11791;SDS011;5953;52.372;9.918;2023-07-31T03:16:48;3.30;;;0.83;;
11791;SDS011;5953;52.372;9.918;2023-07-31T03:19:16;1.23;;;0.70;;
11791;SDS011;5953;52.372;9.918;2023-07-31T03:21:45;0.80;;;0.70;;
11791;SDS011;5953;52.372;9.918;2023-07-31T03:24:13;2.20;;;0.73;;
11791;SDS011;5953;52.372;9.918;2023-07-31T03:26:42;0.87;;;0.70;;
11791;SDS011;5953;52.372;9.918;2023-07-31T03:29:10;4.13;;;0.80;;
11791;SDS011;5953;52.372;9.918;2023-07-31T03:31:38;0.70;;;0.70;;
11791;SDS011;5953;52.372;9.918;2023-07-31T03:34:07;0.87;;;0.83;;
11791;SDS011;5953;52.372;9.918;2023-07-31T03:36:35;1.37;;;1.00;;
11791;SDS011;5953;52.372;9.918;2023-07-31T03:39:03;2.63;;;1.00;;
11791;SDS011;5953;52.372;9.918;2023-07-31T03:41:31;1.10;;;1.00;;
11791;SDS011;5953;52.372;9.918;2023-07-31T03:44:01;1.10;;;1.00;;
11791;SDS011;5953;52.372;9.918;2023-07-31T03:46:29;1.17;;;1.07;;
11791;SDS011;5953;52.372;9.918;2023-07-31T03:48:57;2.07;;;1.07;;
11791;SDS011;5953;52.372;9.918;2023-07-31T03:51:25;2.13;;;1.00;;
11791;SDS011;5953;52.372;9.918;2023-07-31T03:53:53;1.43;;;1.00;;
11791;SDS011;5953;52.372;9.918;2023-07-31T03:56:21;1.63;;;0.90;;
11791;SDS011;5953;52.372;9.918;2023-07-31T03:58:50;1.63;;;1.00;;
11791;SDS011;5953;52.372;9.918;2023-07-31T04:01:19;1.30;;;0.97;;
11791;SDS011;5953;52.372;9.918;2023-07-31T04:03:59;1.33;;;0.93;;
11791;SDS011;5953;52.372;9.918;2023-07-31T04:06:27;2.57;;;1.20;;
11791;SDS011;5953;52.372;9.918;2023-07-31T04:08:55;1.17;;;1.00;;
11791;SDS011;5953;52.372;9.918;2023-07-31T04:11:23;1.27;;;1.17;;
11791;SDS011;5953;52.372;9.918;2023-07-31T04:13:54;1.23;;;1.10;;
11791;SDS011;5953;52.372;9.918;2023-07-31T04:16:24;1.20;;;1.10;;
11791;SDS011;5953;52.372;9.918;2023-07-31T04:18:52;4.47;;;1.30;;
11791;SDS011;5953;52.372;9.918;2023-07-31T04:21:20;1.37;;;1.00;;
11791;SDS011;5953;52.372;9.918;2023-07-31T04:23:48;2.30;;;1.17;;
11791;SDS011;5953;52.372;9.918;2023-07-31T04:26:16;1.07;;;0.97;;
11791;SDS011;5953;52.372;9.918;2023-07-31T04:28:44;1.97;;;1.30;;
11791;SDS011;5953;52.372;9.918;2023-07-31T04:31:12;2.03;;;1.37;;
11791;SDS011;5953;52.372;9.918;2023-07-31T04:33:41;1.27;;;1.13;;
11791;SDS011;5953;52.372;9.918;2023-07-31T04:36:09;2.00;;;1.43;;
11791;SDS011;5953;52.372;9.918;2023-07-31T04:38:37;1.33;;;1.23;;
11791;SDS011;5953;52.372;9.918;2023-07-31T04:41:05;1.73;;;0.97;;
11791;SDS011;5953;52.372;9.918;2023-07-31T04:43:33;1.80;;;1.03;;
11791;SDS011;5953;52.372;9.918;2023-07-31T04:46:01;3.63;;;1.10;;
11791;SDS011;5953;52.372;9.918;2023-07-31T04:48:32;1.20;;;1.10;;
11791;SDS011;5953;52.372;9.918;2023-07-31T04:51:01;1.20;;;1.10;;
11791;SDS011;5953;52.372;9.918;2023-07-31T04:53:29;2.40;;;0.90;;
11791;SDS011;5953;52.372;9.918;2023-07-31T04:55:57;1.30;;;1.07;;
11791;SDS011;5953;52.372;9.918;2023-07-31T04:58:25;1.47;;;1.20;;
11791;SDS011;5953;52.372;9.918;2023-07-31T05:00:53;1.63;;;1.17;;
11791;SDS011;5953;52.372;9.918;2023-07-31T05:03:22;1.53;;;1.40;;
11791;SDS011;5953;52.372;9.918;2023-07-31T05:05:50;3.00;;;1.10;;
11791;SDS011;5953;52.372;9.918;2023-07-31T05:08:21;1.97;;;1.17;;
11791;SDS011;5953;52.372;9.918;2023-07-31T05:10:49;1.00;;;0.90;;
11791;SDS011;5953;52.372;9.918;2023-07-31T05:13:18;0.83;;;0.77;;
11791;SDS011;5953;52.372;9.918;2023-07-31T05:15:46;1.67;;;1.23;;
11791;SDS011;5953;52.372;9.918;2023-07-31T05:18:29;2.00;;;0.80;;
11791;SDS011;5953;52.372;9.918;2023-07-31T05:20:57;1.40;;;1.00;;
11791;SDS011;5953;52.372;9.918;2023-07-31T05:23:26;2.07;;;0.90;;
11791;SDS011;5953;52.372;9.918;2023-07-31T05:25:54;1.20;;;1.10;;
11791;SDS011;5953;52.372;9.918;2023-07-31T05:28:25;0.87;;;0.87;;
11791;SDS011;5953;52.372;9.918;2023-07-31T05:30:58;1.27;;;0.80;;
11791;SDS011;5953;52.372;9.918;2023-07-31T05:33:34;2.83;;;1.07;;
11791;SDS011;5953;52.372;9.918;2023-07-31T05:36:02;1.23;;;0.93;;
11791;SDS011;5953;52.372;9.918;2023-07-31T05:38:31;3.47;;;1.50;;
11791;SDS011;5953;52.372;9.918;2023-07-31T05:41:00;1.17;;;1.07;;
11791;SDS011;5953;52.372;9.918;2023-07-31T05:43:28;2.37;;;1.50;;
11791;SDS011;5953;52.372;9.918;2023-07-31T05:45:56;2.50;;;2.20;;
11791;SDS011;5953;52.372;9.918;2023-07-31T05:48:24;2.53;;;1.87;;
11791;SDS011;5953;52.372;9.918;2023-07-31T05:50:55;2.20;;;1.97;;
11791;SDS011;5953;52.372;9.918;2023-07-31T05:53:23;3.80;;;2.77;;
11791;SDS011;5953;52.372;9.918;2023-07-31T05:55:52;5.57;;;3.77;;
11791;SDS011;5953;52.372;9.918;2023-07-31T05:58:21;5.97;;;4.73;;
11791;SDS011;5953;52.372;9.918;2023-07-31T06:00:48;6.63;;;4.70;;
11791;SDS011;5953;52.372;9.918;2023-07-31T06:03:17;5.37;;;4.63;;
11791;SDS011;5953;52.372;9.918;2023-07-31T06:05:45;8.73;;;4.70;;
11791;SDS011;5953;52.372;9.918;2023-07-31T06:08:13;9.27;;;5.77;;
11791;SDS011;5953;52.372;9.918;2023-07-31T06:10:41;7.13;;;5.73;;
11791;SDS011;5953;52.372;9.918;2023-07-31T06:13:10;9.60;;;6.80;;
11791;SDS011;5953;52.372;9.918;2023-07-31T06:15:38;8.37;;;7.03;;
11791;SDS011;5953;52.372;9.918;2023-07-31T06:18:07;14.27;;;9.00;;
11791;SDS011;5953;52.372;9.918;2023-07-31T06:20:35;10.53;;;9.03;;
11791;SDS011;5953;52.372;9.918;2023-07-31T06:23:03;12.23;;;9.07;;
11791;SDS011;5953;52.372;9.918;2023-07-31T06:25:31;10.63;;;8.37;;
11791;SDS011;5953;52.372;9.918;2023-07-31T06:27:59;10.57;;;8.37;;
11791;SDS011;5953;52.372;9.918;2023-07-31T06:30:28;12.90;;;7.90;;
11791;SDS011;5953;52.372;9.918;2023-07-31T06:32:57;10.10;;;8.63;;
11791;SDS011;5953;52.372;9.918;2023-07-31T06:35:25;10.53;;;8.33;;
11791;SDS011;5953;52.372;9.918;2023-07-31T06:37:53;10.70;;;7.97;;
11791;SDS011;5953;52.372;9.918;2023-07-31T06:40:21;12.57;;;8.57;;
11791;SDS011;5953;52.372;9.918;2023-07-31T06:42:49;10.67;;;7.70;;
11791;SDS011;5953;52.372;9.918;2023-07-31T06:45:18;11.80;;;8.20;;
11791;SDS011;5953;52.372;9.918;2023-07-31T06:47:47;8.13;;;6.77;;
11791;SDS011;5953;52.372;9.918;2023-07-31T06:50:18;10.03;;;6.93;;
11791;SDS011;5953;52.372;9.918;2023-07-31T06:52:46;10.33;;;7.90;;
11791;SDS011;5953;52.372;9.918;2023-07-31T06:55:18;10.13;;;7.10;;
11791;SDS011;5953;52.372;9.918;2023-07-31T06:57:48;10.70;;;7.37;;
11791;SDS011;5953;52.372;9.918;2023-07-31T07:00:17;10.00;;;7.20;;
11791;SDS011;5953;52.372;9.918;2023-07-31T07:02:46;8.97;;;6.67;;
11791;SDS011;5953;52.372;9.918;2023-07-31T07:05:16;11.90;;;7.50;;
11791;SDS011;5953;52.372;9.918;2023-07-31T07:07:45;8.40;;;6.67;;
11791;SDS011;5953;52.372;9.918;2023-07-31T07:10:13;9.10;;;6.83;;
11791;SDS011;5953;52.372;9.918;2023-07-31T07:12:41;10.57;;;7.90;;
11791;SDS011;5953;52.372;9.918;2023-07-31T07:15:09;12.73;;;7.53;;
11791;SDS011;5953;52.372;9.918;2023-07-31T07:17:37;10.00;;;7.80;;
11791;SDS011;5953;52.372;9.918;2023-07-31T07:20:08;11.67;;;7.80;;
11791;SDS011;5953;52.372;9.918;2023-07-31T07:22:36;10.57;;;8.53;;
11791;SDS011;5953;52.372;9.918;2023-07-31T07:25:04;11.17;;;8.43;;
11791;SDS011;5953;52.372;9.918;2023-07-31T07:27:33;13.03;;;9.77;;
11791;SDS011;5953;52.372;9.918;2023-07-31T07:30:02;16.87;;;9.70;;
11791;SDS011;5953;52.372;9.918;2023-07-31T07:32:30;12.53;;;9.67;;
11791;SDS011;5953;52.372;9.918;2023-07-31T07:34:59;12.63;;;10.43;;
11791;SDS011;5953;52.372;9.918;2023-07-31T07:37:28;12.67;;;9.83;;
11791;SDS011;5953;52.372;9.918;2023-07-31T07:39:59;16.70;;;10.83;;
11791;SDS011;5953;52.372;9.918;2023-07-31T07:42:27;13.40;;;10.00;;
11791;SDS011;5953;52.372;9.918;2023-07-31T07:44:54;14.70;;;10.87;;
11791;SDS011;5953;52.372;9.918;2023-07-31T07:47:23;13.37;;;10.60;;
11791;SDS011;5953;52.372;9.918;2023-07-31T07:49:54;15.00;;;11.70;;
11791;SDS011;5953;52.372;9.918;2023-07-31T07:52:22;15.40;;;11.10;;
11791;SDS011;5953;52.372;9.918;2023-07-31T07:54:51;13.57;;;10.57;;
11791;SDS011;5953;52.372;9.918;2023-07-31T07:57:19;13.83;;;12.27;;
11791;SDS011;5953;52.372;9.918;2023-07-31T07:59:48;17.93;;;12.07;;
11791;SDS011;5953;52.372;9.918;2023-07-31T08:02:16;15.83;;;11.00;;
11791;SDS011;5953;52.372;9.918;2023-07-31T08:04:47;14.37;;;11.30;;
11791;SDS011;5953;52.372;9.918;2023-07-31T08:07:15;19.40;;;11.17;;
11791;SDS011;5953;52.372;9.918;2023-07-31T08:09:44;14.50;;;11.70;;
11791;SDS011;5953;52.372;9.918;2023-07-31T08:14:59;15.40;;;10.00;;
11791;SDS011;5953;52.372;9.918;2023-07-31T08:17:27;11.83;;;9.30;;
11791;SDS011;5953;52.372;9.918;2023-07-31T08:20:13;17.17;;;10.47;;
11791;SDS011;5953;52.372;9.918;2023-07-31T08:25:29;12.17;;;8.80;;
11791;SDS011;5953;52.372;9.918;2023-07-31T08:27:58;12.87;;;8.70;;
11791;SDS011;5953;52.372;9.918;2023-07-31T08:33:13;11.23;;;7.63;;
11791;SDS011;5953;52.372;9.918;2023-07-31T08:35:47;15.80;;;7.80;;
11791;SDS011;5953;52.372;9.918;2023-07-31T08:38:17;10.50;;;6.90;;
11791;SDS011;5953;52.372;9.918;2023-07-31T08:40:47;9.77;;;6.83;;
11791;SDS011;5953;52.372;9.918;2023-07-31T08:43:16;10.07;;;6.70;;
11791;SDS011;5953;52.372;9.918;2023-07-31T08:45:47;8.73;;;6.50;;
11791;SDS011;5953;52.372;9.918;2023-07-31T08:48:18;10.17;;;5.80;;
11791;SDS011;5953;52.372;9.918;2023-07-31T08:51:08;12.27;;;5.57;;
11791;SDS011;5953;52.372;9.918;2023-07-31T08:53:38;8.53;;;6.07;;
11791;SDS011;5953;52.372;9.918;2023-07-31T08:56:08;11.10;;;6.30;;
11791;SDS011;5953;52.372;9.918;2023-07-31T08:58:44;9.40;;;6.33;;
11791;SDS011;5953;52.372;9.918;2023-07-31T09:01:14;11.13;;;6.87;;
11791;SDS011;5953;52.372;9.918;2023-07-31T09:03:44;9.63;;;6.30;;
11791;SDS011;5953;52.372;9.918;2023-07-31T09:06:13;12.57;;;7.27;;
11791;SDS011;5953;52.372;9.918;2023-07-31T09:08:44;12.87;;;6.93;;
11791;SDS011;5953;52.372;9.918;2023-07-31T09:11:12;11.47;;;6.73;;
11791;SDS011;5953;52.372;9.918;2023-07-31T09:13:41;9.50;;;6.43;;
11791;SDS011;5953;52.372;9.918;2023-07-31T09:16:10;11.63;;;7.07;;
11791;SDS011;5953;52.372;9.918;2023-07-31T09:18:52;8.67;;;6.57;;
11791;SDS011;5953;52.372;9.918;2023-07-31T09:21:23;9.30;;;5.93;;
11791;SDS011;5953;52.372;9.918;2023-07-31T09:23:55;10.40;;;6.20;;
11791;SDS011;5953;52.372;9.918;2023-07-31T09:26:30;11.50;;;6.93;;
11791;SDS011;5953;52.372;9.918;2023-07-31T09:28:59;10.37;;;6.27;;
11791;SDS011;5953;52.372;9.918;2023-07-31T09:34:18;9.53;;;5.77;;
11791;SDS011;5953;52.372;9.918;2023-07-31T09:36:52;8.27;;;5.47;;
11791;SDS011;5953;52.372;9.918;2023-07-31T09:39:32;8.40;;;5.27;;
11791;SDS011;5953;52.372;9.918;2023-07-31T09:42:23;10.80;;;5.33;;
11791;SDS011;5953;52.372;9.918;2023-07-31T09:44:54;5.30;;;4.80;;
11791;SDS011;5953;52.372;9.918;2023-07-31T09:47:35;7.90;;;4.33;;
11791;SDS011;5953;52.372;9.918;2023-07-31T09:50:06;5.80;;;4.37;;
11791;SDS011;5953;52.372;9.918;2023-07-31T09:52:36;6.33;;;4.23;;
11791;SDS011;5953;52.372;9.918;2023-07-31T09:55:06;6.10;;;4.00;;
11791;SDS011;5953;52.372;9.918;2023-07-31T09:57:36;5.50;;;3.23;;
11791;SDS011;5953;52.372;9.918;2023-07-31T10:00:08;3.17;;;2.57;;
11791;SDS011;5953;52.372;9.918;2023-07-31T10:02:41;5.43;;;2.87;;
11791;SDS011;5953;52.372;9.918;2023-07-31T10:05:25;3.20;;;2.40;;
11791;SDS011;5953;52.372;9.918;2023-07-31T10:08:03;4.30;;;3.07;;
11791;SDS011;5953;52.372;9.918;2023-07-31T10:10:37;4.67;;;3.03;;
11791;SDS011;5953;52.372;9.918;2023-07-31T10:13:09;3.10;;;2.73;;
11791;SDS011;5953;52.372;9.918;2023-07-31T10:15:42;5.40;;;2.67;;
11791;SDS011;5953;52.372;9.918;2023-07-31T10:18:12;2.97;;;2.50;;
11791;SDS011;5953;52.372;9.918;2023-07-31T10:20:44;2.93;;;2.10;;
11791;SDS011;5953;52.372;9.918;2023-07-31T10:23:13;2.83;;;2.20;;
11791;SDS011;5953;52.372;9.918;2023-07-31T10:26:18;2.60;;;2.10;;
11791;SDS011;5953;52.372;9.918;2023-07-31T10:28:47;3.20;;;1.90;;
11791;SDS011;5953;52.372;9.918;2023-07-31T10:31:20;3.77;;;2.60;;
11791;SDS011;5953;52.372;9.918;2023-07-31T10:33:53;3.37;;;2.07;;
11791;SDS011;5953;52.372;9.918;2023-07-31T10:36:22;3.07;;;2.77;;
11791;SDS011;5953;52.372;9.918;2023-07-31T10:38:50;3.03;;;2.60;;
11791;SDS011;5953;52.372;9.918;2023-07-31T10:41:19;3.13;;;2.40;;
11791;SDS011;5953;52.372;9.918;2023-07-31T10:43:47;3.30;;;3.00;;
11791;SDS011;5953;52.372;9.918;2023-07-31T10:46:14;5.00;;;2.83;;
11791;SDS011;5953;52.372;9.918;2023-07-31T10:48:42;5.87;;;2.57;;
11791;SDS011;5953;52.372;9.918;2023-07-31T10:51:12;4.67;;;3.10;;
11791;SDS011;5953;52.372;9.918;2023-07-31T10:53:40;4.57;;;2.40;;
11791;SDS011;5953;52.372;9.918;2023-07-31T10:56:08;4.30;;;3.00;;
11791;SDS011;5953;52.372;9.918;2023-07-31T10:58:59;4.30;;;2.57;;
11791;SDS011;5953;52.372;9.918;2023-07-31T11:04:30;3.97;;;2.80;;
11791;SDS011;5953;52.372;9.918;2023-07-31T11:07:00;3.60;;;2.60;;
11791;SDS011;5953;52.372;9.918;2023-07-31T11:09:32;6.57;;;3.03;;
11791;SDS011;5953;52.372;9.918;2023-07-31T11:12:00;3.40;;;2.50;;
11791;SDS011;5953;52.372;9.918;2023-07-31T11:14:42;3.53;;;3.23;;
11791;SDS011;5953;52.372;9.918;2023-07-31T11:17:27;4.20;;;2.63;;
11791;SDS011;5953;52.372;9.918;2023-07-31T11:19:57;3.47;;;2.50;;
11791;SDS011;5953;52.372;9.918;2023-07-31T11:22:27;7.40;;;3.10;;
11791;SDS011;5953;52.372;9.918;2023-07-31T11:24:55;4.03;;;2.70;;
11791;SDS011;5953;52.372;9.918;2023-07-31T11:27:24;2.30;;;2.10;;
11791;SDS011;5953;52.372;9.918;2023-07-31T11:29:59;3.67;;;2.40;;
11791;SDS011;5953;52.372;9.918;2023-07-31T11:32:42;4.33;;;2.50;;
11791;SDS011;5953;52.372;9.918;2023-07-31T11:35:12;2.90;;;2.53;;
11791;SDS011;5953;52.372;9.918;2023-07-31T11:37:42;2.67;;;2.37;;
11791;SDS011;5953;52.372;9.918;2023-07-31T11:40:21;2.73;;;2.50;;
11791;SDS011;5953;52.372;9.918;2023-07-31T11:43:03;4.60;;;3.40;;
11791;SDS011;5953;52.372;9.918;2023-07-31T11:45:34;2.97;;;2.63;;
11791;SDS011;5953;52.372;9.918;2023-07-31T11:48:02;3.43;;;2.83;;
11791;SDS011;5953;52.372;9.918;2023-07-31T11:50:32;3.00;;;2.70;;
11791;SDS011;5953;52.372;9.918;2023-07-31T11:53:04;3.40;;;2.83;;
11791;SDS011;5953;52.372;9.918;2023-07-31T11:55:38;3.27;;;2.80;;
11791;SDS011;5953;52.372;9.918;2023-07-31T11:58:13;3.93;;;2.67;;
11791;SDS011;5953;52.372;9.918;2023-07-31T12:00:43;2.43;;;2.20;;
11791;SDS011;5953;52.372;9.918;2023-07-31T12:03:13;4.03;;;2.27;;
11791;SDS011;5953;52.372;9.918;2023-07-31T12:05:41;3.20;;;2.33;;
11791;SDS011;5953;52.372;9.918;2023-07-31T12:08:11;2.40;;;2.20;;
11791;SDS011;5953;52.372;9.918;2023-07-31T12:10:40;2.83;;;2.53;;
11791;SDS011;5953;52.372;9.918;2023-07-31T12:13:08;3.20;;;2.37;;
11791;SDS011;5953;52.372;9.918;2023-07-31T12:15:41;3.20;;;2.17;;
11791;SDS011;5953;52.372;9.918;2023-07-31T12:18:20;3.97;;;1.97;;
11791;SDS011;5953;52.372;9.918;2023-07-31T12:20:53;3.63;;;2.40;;
11791;SDS011;5953;52.372;9.918;2023-07-31T12:23:24;2.63;;;1.90;;
11791;SDS011;5953;52.372;9.918;2023-07-31T12:26:02;3.53;;;2.07;;
11791;SDS011;5953;52.372;9.918;2023-07-31T12:28:34;2.90;;;1.77;;
11791;SDS011;5953;52.372;9.918;2023-07-31T12:31:03;2.67;;;1.70;;
11791;SDS011;5953;52.372;9.918;2023-07-31T12:33:32;1.50;;;1.40;;
11791;SDS011;5953;52.372;9.918;2023-07-31T12:36:02;3.40;;;1.80;;
11791;SDS011;5953;52.372;9.918;2023-07-31T12:38:32;2.43;;;1.50;;
11791;SDS011;5953;52.372;9.918;2023-07-31T12:41:00;3.17;;;1.80;;
11791;SDS011;5953;52.372;9.918;2023-07-31T12:43:28;3.90;;;1.43;;
11791;SDS011;5953;52.372;9.918;2023-07-31T12:45:56;2.40;;;1.60;;
11791;SDS011;5953;52.372;9.918;2023-07-31T12:48:24;1.70;;;1.23;;
11791;SDS011;5953;52.372;9.918;2023-07-31T12:50:52;1.70;;;1.50;;
11791;SDS011;5953;52.372;9.918;2023-07-31T12:53:20;2.33;;;1.50;;
11791;SDS011;5953;52.372;9.918;2023-07-31T12:55:49;3.97;;;1.40;;
11791;SDS011;5953;52.372;9.918;2023-07-31T12:58:17;1.20;;;1.10;;
11791;SDS011;5953;52.372;9.918;2023-07-31T13:00:45;2.30;;;1.60;;
11791;SDS011;5953;52.372;9.918;2023-07-31T13:03:13;2.67;;;1.37;;
11791;SDS011;5953;52.372;9.918;2023-07-31T13:05:42;1.87;;;1.20;;
11791;SDS011;5953;52.372;9.918;2023-07-31T13:08:10;1.43;;;1.20;;
11791;SDS011;5953;52.372;9.918;2023-07-31T13:10:38;2.70;;;1.40;;
11791;SDS011;5953;52.372;9.918;2023-07-31T13:13:07;1.90;;;1.20;;
11791;SDS011;5953;52.372;9.918;2023-07-31T13:15:36;1.50;;;1.10;;
11791;SDS011;5953;52.372;9.918;2023-07-31T13:18:04;1.40;;;1.30;;
11791;SDS011;5953;52.372;9.918;2023-07-31T13:20:32;1.50;;;1.00;;
11791;SDS011;5953;52.372;9.918;2023-07-31T13:23:00;4.03;;;1.13;;
11791;SDS011;5953;52.372;9.918;2023-07-31T13:25:28;1.00;;;0.90;;
11791;SDS011;5953;52.372;9.918;2023-07-31T13:27:56;1.40;;;1.20;;
11791;SDS011;5953;52.372;9.918;2023-07-31T13:30:29;2.07;;;1.23;;
11791;SDS011;5953;52.372;9.918;2023-07-31T13:33:07;1.83;;;1.40;;
11791;SDS011;5953;52.372;9.918;2023-07-31T13:35:55;1.60;;;1.20;;
11791;SDS011;5953;52.372;9.918;2023-07-31T13:38:23;1.47;;;1.37;;
11791;SDS011;5953;52.372;9.918;2023-07-31T13:40:51;1.40;;;1.20;;
11791;SDS011;5953;52.372;9.918;2023-07-31T13:43:19;1.10;;;1.00;;
11791;SDS011;5953;52.372;9.918;2023-07-31T13:45:48;2.20;;;1.00;;
11791;SDS011;5953;52.372;9.918;2023-07-31T13:48:16;1.20;;;1.10;;
11791;SDS011;5953;52.372;9.918;2023-07-31T13:50:44;1.73;;;1.10;;
11791;SDS011;5953;52.372;9.918;2023-07-31T13:53:15;1.40;;;1.27;;
11791;SDS011;5953;52.372;9.918;2023-07-31T13:55:43;2.53;;;1.17;;
11791;SDS011;5953;52.372;9.918;2023-07-31T13:58:12;1.47;;;0.90;;
11791;SDS011;5953;52.372;9.918;2023-07-31T14:00:40;1.40;;;1.00;;
11791;SDS011;5953;52.372;9.918;2023-07-31T14:03:09;1.17;;;0.90;;
11791;SDS011;5953;52.372;9.918;2023-07-31T14:05:37;0.70;;;0.70;;
11791;SDS011;5953;52.372;9.918;2023-07-31T14:08:07;1.87;;;0.90;;
11791;SDS011;5953;52.372;9.918;2023-07-31T14:10:35;2.13;;;0.80;;
11791;SDS011;5953;52.372;9.918;2023-07-31T14:13:04;1.00;;;0.90;;
11791;SDS011;5953;52.372;9.918;2023-07-31T14:15:32;0.80;;;0.80;;
11791;SDS011;5953;52.372;9.918;2023-07-31T14:18:02;1.53;;;0.80;;
11791;SDS011;5953;52.372;9.918;2023-07-31T14:20:37;0.83;;;0.80;;
11791;SDS011;5953;52.372;9.918;2023-07-31T14:23:12;1.60;;;0.90;;
11791;SDS011;5953;52.372;9.918;2023-07-31T14:25:40;3.27;;;0.80;;
11791;SDS011;5953;52.372;9.918;2023-07-31T14:28:08;1.30;;;1.20;;
11791;SDS011;5953;52.372;9.918;2023-07-31T14:30:36;0.80;;;0.80;;
11791;SDS011;5953;52.372;9.918;2023-07-31T14:33:05;2.40;;;0.80;;
11791;SDS011;5953;52.372;9.918;2023-07-31T14:35:33;1.07;;;1.00;;
11791;SDS011;5953;52.372;9.918;2023-07-31T14:38:03;1.03;;;0.97;;
11791;SDS011;5953;52.372;9.918;2023-07-31T14:40:31;2.50;;;1.40;;
11791;SDS011;5953;52.372;9.918;2023-07-31T14:42:59;1.40;;;1.30;;
11791;SDS011;5953;52.372;9.918;2023-07-31T14:45:28;1.30;;;1.20;;
11791;SDS011;5953;52.372;9.918;2023-07-31T14:47:56;1.63;;;1.50;;
11791;SDS011;5953;52.372;9.918;2023-07-31T14:50:24;1.70;;;1.60;;
11791;SDS011;5953;52.372;9.918;2023-07-31T14:52:53;2.03;;;1.73;;
11791;SDS011;5953;52.372;9.918;2023-07-31T14:55:22;2.30;;;2.10;;
11791;SDS011;5953;52.372;9.918;2023-07-31T14:57:50;1.90;;;1.80;;
11791;SDS011;5953;52.372;9.918;2023-07-31T15:00:18;2.10;;;1.90;;
11791;SDS011;5953;52.372;9.918;2023-07-31T15:02:46;2.30;;;2.10;;
11791;SDS011;5953;52.372;9.918;2023-07-31T15:05:14;1.77;;;1.67;;
11791;SDS011;5953;52.372;9.918;2023-07-31T15:07:42;3.50;;;1.90;;
11791;SDS011;5953;52.372;9.918;2023-07-31T15:10:10;3.07;;;2.17;;
11791;SDS011;5953;52.372;9.918;2023-07-31T15:12:40;2.50;;;2.27;;
11791;SDS011;5953;52.372;9.918;2023-07-31T15:15:09;2.27;;;2.07;;
11791;SDS011;5953;52.372;9.918;2023-07-31T15:17:37;3.03;;;2.03;;
11791;SDS011;5953;52.372;9.918;2023-07-31T15:20:06;2.07;;;1.87;;
11791;SDS011;5953;52.372;9.918;2023-07-31T15:22:34;2.53;;;2.00;;
11791;SDS011;5953;52.372;9.918;2023-07-31T15:25:02;3.17;;;1.73;;
11791;SDS011;5953;52.372;9.918;2023-07-31T15:27:31;2.57;;;2.20;;
11791;SDS011;5953;52.372;9.918;2023-07-31T15:30:00;2.20;;;2.00;;